Time;durP1;ratioP1;P1;durP2;ratioP2;P2;SDS_P1;SDS_P2;PMS_P1;PMS_P2;Temp;Humidity;BMP_temperature;BMP_pressure;BME280_temperature;BME280_humidity;BME280_pressure;Samples;Min_cycle;Max_cycle;Signal;HPM_P1;HPM_P2
2021/07/17 00:02:07;;;;;;;36.67;12.95;;;17.30;99.90;;;;;;5063811;28;20243;-65
2021/07/17 00:04:33;;;;;;;43.17;14.38;;;17.20;99.90;;;;;;5065733;28;20168;-65
2021/07/17 00:06:59;;;;;;;34.60;13.80;;;17.20;99.90;;;;;;5065935;28;20269;-65
2021/07/17 00:09:24;;;;;;;35.22;13.38;;;17.20;99.90;;;;;;5065765;28;20188;-65
2021/07/17 00:11:50;;;;;;;35.75;13.57;;;17.20;99.90;;;;;;5063453;28;20153;-65
2021/07/17 00:14:16;;;;;;;36.65;14.02;;;17.20;99.90;;;;;;5065751;28;20161;-65
2021/07/17 00:16:42;;;;;;;40.17;14.50;;;17.20;99.90;;;;;;5065827;28;20179;-65
2021/07/17 00:19:09;;;;;;;33.40;14.05;;;17.10;99.90;;;;;;5065673;28;20181;-65
2021/07/17 00:21:34;;;;;;;35.28;13.13;;;17.10;99.90;;;;;;5063352;28;20191;-65
2021/07/17 00:24:00;;;;;;;33.97;13.93;;;17.00;99.90;;;;;;5065880;28;20218;-65
2021/07/17 00:26:26;;;;;;;43.92;14.73;;;17.00;99.90;;;;;;5065817;28;20172;-65
2021/07/17 00:28:51;;;;;;;36.47;13.43;;;16.90;99.90;;;;;;5065655;28;20196;-65
2021/07/17 00:31:17;;;;;;;43.67;14.57;;;16.80;99.90;;;;;;5062872;28;20168;-65
2021/07/17 00:33:43;;;;;;;34.40;14.10;;;16.80;99.90;;;;;;5065513;28;20173;-65
2021/07/17 00:36:09;;;;;;;37.83;14.50;;;16.70;99.90;;;;;;5065600;28;20222;-65
2021/07/17 00:38:35;;;;;;;45.38;14.73;;;16.70;99.90;;;;;;5065468;28;20185;-65
2021/07/17 00:41:00;;;;;;;44.88;15.05;;;16.70;99.90;;;;;;5063070;28;20169;-65
2021/07/17 00:43:26;;;;;;;30.33;13.95;;;16.60;99.90;;;;;;5065293;28;20168;-65
2021/07/17 00:45:52;;;;;;;33.97;13.93;;;16.60;99.90;;;;;;5065150;28;20172;-65
2021/07/17 00:48:18;;;;;;;52.08;15.82;;;16.60;99.90;;;;;;5065029;28;20670;-65
2021/07/17 00:50:43;;;;;;;41.00;14.30;;;16.60;99.90;;;;;;5062610;28;20164;-65
2021/07/17 00:53:09;;;;;;;33.95;14.80;;;16.60;99.90;;;;;;5065498;28;20255;-65
2021/07/17 00:55:40;;;;;;;39.38;15.00;;;16.60;99.90;;;;;;5065513;28;20165;-65
2021/07/17 00:58:08;;;;;;;33.72;14.45;;;16.60;99.90;;;;;;5065560;28;20175;-65
2021/07/17 01:00:33;;;;;;;35.88;14.95;;;16.60;99.90;;;;;;5062704;28;20173;-65
2021/07/17 01:03:06;;;;;;;31.30;14.55;;;16.60;99.90;;;;;;5065183;28;20195;-65
2021/07/17 01:05:33;;;;;;;37.95;14.82;;;16.60;99.90;;;;;;5064945;28;20175;-65
2021/07/17 01:07:58;;;;;;;35.13;14.10;;;16.60;99.90;;;;;;5065185;28;20212;-65
2021/07/17 01:10:24;;;;;;;45.70;15.18;;;16.60;99.90;;;;;;5063889;28;20254;-65
2021/07/17 01:12:51;;;;;;;33.03;13.55;;;16.60;99.90;;;;;;5064404;28;20176;-65
2021/07/17 01:15:17;;;;;;;38.03;14.70;;;16.60;99.90;;;;;;5065343;28;20211;-65
2021/07/17 01:17:43;;;;;;;38.97;14.25;;;16.50;99.90;;;;;;5065439;28;20161;-65
2021/07/17 01:20:15;;;;;;;40.72;15.02;;;16.60;99.90;;;;;;5065182;28;20199;-65
2021/07/17 01:22:41;;;;;;;34.95;13.70;;;16.50;99.90;;;;;;5063553;28;20492;-65
2021/07/17 01:25:13;;;;;;;45.67;15.30;;;16.60;99.90;;;;;;5065338;28;20157;-65
2021/07/17 01:27:40;;;;;;;34.95;14.63;;;16.60;99.90;;;;;;5065219;28;20168;-66
2021/07/17 01:30:11;;;;;;;36.05;15.20;;;16.60;99.90;;;;;;5066795;28;20172;-65
2021/07/17 01:32:37;;;;;;;34.20;14.43;;;16.50;99.90;;;;;;5066726;28;20630;-65
2021/07/17 01:35:03;;;;;;;39.60;14.45;;;16.50;99.90;;;;;;5068756;28;20196;-65
2021/07/17 01:37:29;;;;;;;39.47;16.13;;;16.50;99.90;;;;;;5068949;28;20165;-65
2021/07/17 01:39:55;;;;;;;43.25;14.75;;;16.50;99.90;;;;;;5068874;28;20292;-65
2021/07/17 01:42:21;;;;;;;42.90;14.77;;;16.40;99.90;;;;;;5066241;28;20195;-65
2021/07/17 01:44:46;;;;;;;39.72;15.27;;;16.40;99.90;;;;;;5068944;28;20635;-65
2021/07/17 01:47:14;;;;;;;46.85;15.38;;;16.30;99.90;;;;;;5068697;28;20152;-65
2021/07/17 01:49:40;;;;;;;37.20;15.05;;;16.30;99.90;;;;;;5068673;28;20192;-65
2021/07/17 01:52:07;;;;;;;36.17;14.45;;;16.30;99.90;;;;;;5066116;28;20160;-65
2021/07/17 01:54:37;;;;;;;30.67;14.63;;;16.30;99.90;;;;;;5067249;28;20168;-65
2021/07/17 01:57:04;;;;;;;32.72;14.57;;;16.30;99.90;;;;;;5068665;28;20528;-65
2021/07/17 01:59:36;;;;;;;37.55;14.73;;;16.30;99.90;;;;;;5068390;28;20226;-65
2021/07/17 02:02:02;;;;;;;31.13;14.35;;;16.40;99.90;;;;;;5066038;28;20168;-65
2021/07/17 02:04:28;;;;;;;39.03;14.35;;;16.40;99.90;;;;;;5068009;28;20706;-65
2021/07/17 02:06:53;;;;;;;34.85;14.98;;;16.30;99.90;;;;;;5068288;28;20220;-65
2021/07/17 02:09:19;;;;;;;35.63;15.80;;;16.40;99.90;;;;;;5068158;28;20216;-65
2021/07/17 02:11:44;;;;;;;39.80;14.93;;;16.30;99.90;;;;;;5064540;28;20237;-65
2021/07/17 02:14:10;;;;;;;36.00;15.27;;;16.30;99.90;;;;;;5068529;28;20167;-65
2021/07/17 02:16:36;;;;;;;29.00;14.73;;;16.30;99.90;;;;;;5068441;28;20191;-65
2021/07/17 02:19:19;;;;;;;41.83;15.30;;;16.30;99.90;;;;;;5068035;28;20179;-65
2021/07/17 02:21:50;;;;;;;31.30;14.30;;;16.30;99.90;;;;;;5065641;28;20164;-65
2021/07/17 02:24:16;;;;;;;37.58;15.60;;;16.40;99.90;;;;;;5068065;28;20164;-64
2021/07/17 02:26:43;;;;;;;34.90;15.93;;;16.50;99.90;;;;;;5068330;28;20635;-64
2021/07/17 02:29:10;;;;;;;40.47;15.63;;;16.40;99.90;;;;;;5067962;28;20193;-64
2021/07/17 02:31:36;;;;;;;42.25;16.92;;;16.60;99.90;;;;;;5065346;28;20210;-64
2021/07/17 02:34:03;;;;;;;41.50;15.70;;;16.60;99.90;;;;;;5066327;28;20172;-64
2021/07/17 02:36:29;;;;;;;35.85;14.90;;;16.70;99.90;;;;;;5067650;28;20248;-64
2021/07/17 02:38:55;;;;;;;34.42;14.75;;;16.70;99.90;;;;;;5067817;28;20217;-64
2021/07/17 02:41:22;;;;;;;40.35;15.38;;;16.80;99.90;;;;;;5062618;28;20161;-64
2021/07/17 02:43:48;;;;;;;41.50;16.15;;;16.80;99.90;;;;;;5067904;28;20224;-64
2021/07/17 02:46:14;;;;;;;34.35;16.70;;;16.80;99.90;;;;;;5067779;28;20175;-64
2021/07/17 02:48:40;;;;;;;36.88;14.88;;;16.90;99.90;;;;;;5067286;28;20188;-63
2021/07/17 02:51:06;;;;;;;35.22;15.95;;;16.90;99.90;;;;;;5065166;28;20172;-64
2021/07/17 02:53:31;;;;;;;32.75;15.25;;;17.00;99.90;;;;;;5067443;28;20236;-64
2021/07/17 02:55:57;;;;;;;40.00;15.98;;;16.90;99.90;;;;;;5067706;28;20168;-64
2021/07/17 02:58:23;;;;;;;39.75;15.02;;;17.00;99.90;;;;;;5067281;28;20532;-64
2021/07/17 03:00:54;;;;;;;41.08;15.25;;;17.00;99.90;;;;;;5064815;28;20244;-64
2021/07/17 03:03:20;;;;;;;43.05;15.35;;;17.00;99.90;;;;;;5067297;28;20157;-64
2021/07/17 03:05:46;;;;;;;30.17;14.27;;;17.10;99.90;;;;;;5067047;28;20171;-64
2021/07/17 03:08:15;;;;;;;34.58;15.60;;;17.10;99.90;;;;;;5067070;28;20256;-64
2021/07/17 03:10:41;;;;;;;33.55;14.82;;;17.20;99.90;;;;;;5064694;28;20165;-64
2021/07/17 03:13:07;;;;;;;33.08;15.40;;;17.20;99.90;;;;;;5067387;28;20161;-64
2021/07/17 03:15:33;;;;;;;43.50;15.52;;;17.20;99.90;;;;;;5067225;28;20163;-64
2021/07/17 03:17:58;;;;;;;39.95;15.05;;;17.20;99.90;;;;;;5067027;28;20189;-64
2021/07/17 03:20:24;;;;;;;37.50;14.88;;;17.20;99.90;;;;;;5065370;28;20169;-64
2021/07/17 03:22:50;;;;;;;31.17;14.30;;;17.20;99.90;;;;;;5066035;28;20251;-64
2021/07/17 03:25:15;;;;;;;28.27;13.93;;;17.20;99.90;;;;;;5066825;28;20172;-64
2021/07/17 03:27:41;;;;;;;33.22;15.20;;;17.20;99.90;;;;;;5066913;28;20167;-64
2021/07/17 03:30:08;;;;;;;33.33;14.73;;;17.20;99.90;;;;;;5066959;28;20172;-64
2021/07/17 03:32:34;;;;;;;26.25;13.80;;;17.20;99.90;;;;;;5064249;28;20156;-64
2021/07/17 03:35:00;;;;;;;29.33;13.95;;;17.10;99.90;;;;;;5066533;28;20175;-64
2021/07/17 03:37:25;;;;;;;39.40;15.65;;;17.00;99.90;;;;;;5066828;28;20168;-64
2021/07/17 03:39:51;;;;;;;33.95;14.40;;;17.00;99.90;;;;;;5066712;28;20173;-64
2021/07/17 03:42:17;;;;;;;36.65;14.98;;;17.00;99.90;;;;;;5062653;28;20291;-64
2021/07/17 03:44:43;;;;;;;32.50;13.30;;;17.10;99.90;;;;;;5066797;28;20157;-64
2021/07/17 03:47:08;;;;;;;39.70;14.93;;;17.10;99.90;;;;;;5066489;28;20203;-64
2021/07/17 03:49:34;;;;;;;32.40;14.27;;;17.20;99.90;;;;;;5066198;28;20207;-64
2021/07/17 03:52:00;;;;;;;29.52;14.15;;;17.30;99.90;;;;;;5063708;28;20216;-64
2021/07/17 03:54:25;;;;;;;32.05;14.57;;;17.20;99.90;;;;;;5066211;28;20164;-64
2021/07/17 03:56:51;;;;;;;29.55;14.18;;;17.20;99.90;;;;;;5066341;28;20165;-64
2021/07/17 03:59:17;;;;;;;35.90;15.30;;;17.20;99.90;;;;;;5066149;28;20212;-64
2021/07/17 04:01:43;;;;;;;47.47;16.88;;;17.30;99.90;;;;;;5063492;28;20176;-64
2021/07/17 04:04:12;;;;;;;30.52;14.77;;;17.50;99.90;;;;;;5066056;28;20180;-64
2021/07/17 04:06:38;;;;;;;30.58;14.25;;;17.50;99.90;;;;;;5066120;28;20777;-64
2021/07/17 04:09:03;;;;;;;37.67;15.77;;;17.50;99.90;;;;;;5065953;28;20195;-64
2021/07/17 04:11:30;;;;;;;32.63;14.65;;;17.60;99.90;;;;;;5063406;28;20160;-64
2021/07/17 04:13:55;;;;;;;35.08;15.18;;;17.50;99.90;;;;;;5066151;28;20157;-64
2021/07/17 04:16:21;;;;;;;41.97;14.60;;;17.50;99.90;;;;;;5065732;28;20157;-64
2021/07/17 04:18:46;;;;;;;40.40;15.98;;;17.40;99.90;;;;;;5064589;28;20169;-64
2021/07/17 04:21:13;;;;;;;32.70;14.98;;;17.40;99.90;;;;;;5063255;28;20169;-64
2021/07/17 04:23:39;;;;;;;38.95;14.70;;;17.40;99.90;;;;;;5066057;28;20189;-64
2021/07/17 04:26:05;;;;;;;37.97;15.18;;;17.30;99.90;;;;;;5065912;28;20236;-64
2021/07/17 04:28:30;;;;;;;34.80;14.70;;;17.30;99.90;;;;;;5065549;28;20177;-64
2021/07/17 04:30:56;;;;;;;29.50;13.90;;;17.30;99.90;;;;;;5063170;28;20168;-64
2021/07/17 04:33:22;;;;;;;38.90;14.73;;;17.30;99.90;;;;;;5065551;28;20183;-64
2021/07/17 04:35:48;;;;;;;43.92;15.13;;;17.40;99.90;;;;;;5065340;28;20196;-64
2021/07/17 04:38:13;;;;;;;34.85;14.40;;;17.50;99.90;;;;;;5065633;28;20361;-64
2021/07/17 04:40:39;;;;;;;34.85;13.70;;;17.60;99.90;;;;;;5063126;28;20234;-64
2021/07/17 04:43:05;;;;;;;31.48;13.93;;;17.70;99.90;;;;;;5065697;28;20306;-64
2021/07/17 04:45:31;;;;;;;37.20;15.05;;;17.70;99.90;;;;;;5065585;28;20232;-64
2021/07/17 04:47:57;;;;;;;32.20;14.32;;;17.80;99.90;;;;;;5065486;28;20165;-64
2021/07/17 04:50:22;;;;;;;36.42;14.90;;;17.80;99.90;;;;;;5064077;28;20168;-64
2021/07/17 04:52:49;;;;;;;43.13;14.40;;;17.90;99.90;;;;;;5064394;28;20557;-64
2021/07/17 04:55:15;;;;;;;34.63;15.20;;;17.90;99.90;;;;;;5064019;28;20255;-64
2021/07/17 04:57:41;;;;;;;35.70;14.13;;;17.90;99.90;;;;;;5065637;28;20220;-64
2021/07/17 05:00:08;;;;;;;29.67;13.75;;;18.00;99.90;;;;;;5064291;28;20184;-64
2021/07/17 05:02:45;;;;;;;36.70;15.07;;;18.00;99.90;;;;;;5062742;28;20157;-64
2021/07/17 05:05:11;;;;;;;45.03;14.90;;;18.10;99.90;;;;;;5067020;28;20164;-64
2021/07/17 05:07:37;;;;;;;37.47;14.70;;;18.10;99.90;;;;;;5069344;28;20253;-64
2021/07/17 05:10:02;;;;;;;39.38;14.45;;;18.10;99.90;;;;;;5069284;28;20246;-64
2021/07/17 05:12:28;;;;;;;33.22;14.27;;;18.10;99.90;;;;;;5066616;28;20165;-64
2021/07/17 05:14:54;;;;;;;28.40;14.00;;;18.00;99.90;;;;;;5068225;28;20175;-64
2021/07/17 05:17:19;;;;;;;37.97;13.80;;;18.10;99.90;;;;;;5069139;28;20236;-64
2021/07/17 05:19:45;;;;;;;36.78;14.52;;;18.00;99.90;;;;;;5069247;28;20776;-64
2021/07/17 05:22:10;;;;;;;43.30;14.25;;;18.10;99.90;;;;;;5066817;28;20168;-64
2021/07/17 05:24:36;;;;;;;48.58;15.68;;;18.00;99.90;;;;;;5069434;28;20164;-64
2021/07/17 05:27:02;;;;;;;30.50;12.95;;;17.90;99.90;;;;;;5069163;28;20220;-65
2021/07/17 05:29:27;;;;;;;39.83;14.45;;;17.90;99.90;;;;;;5067643;28;20196;-64
2021/07/17 05:31:53;;;;;;;38.83;13.57;;;17.90;99.90;;;;;;5066319;28;20161;-64
2021/07/17 05:34:19;;;;;;;35.65;13.55;;;18.00;99.90;;;;;;5068653;28;20205;-64
2021/07/17 05:36:44;;;;;;;32.70;13.68;;;18.00;99.90;;;;;;5069029;28;20165;-64
2021/07/17 05:39:10;;;;;;;38.58;14.10;;;18.10;99.90;;;;;;5068736;28;20251;-63
2021/07/17 05:41:35;;;;;;;37.53;13.57;;;18.10;99.90;;;;;;5066564;28;20181;-64
2021/07/17 05:44:01;;;;;;;44.45;14.02;;;18.20;99.90;;;;;;5068905;28;20156;-64
2021/07/17 05:46:27;;;;;;;39.22;13.70;;;18.30;99.90;;;;;;5068518;28;20165;-64
2021/07/17 05:48:52;;;;;;;29.55;13.40;;;18.30;99.90;;;;;;5068436;28;20227;-64
2021/07/17 05:51:18;;;;;;;32.30;13.18;;;18.20;99.90;;;;;;5065951;28;20209;-64
2021/07/17 05:53:44;;;;;;;39.47;13.15;;;18.20;99.90;;;;;;5068736;28;20171;-64
2021/07/17 05:56:09;;;;;;;32.72;12.35;;;18.20;99.90;;;;;;5068747;28;20614;-64
2021/07/17 05:58:35;;;;;;;36.80;12.85;;;18.30;99.90;;;;;;5068546;28;20171;-64
2021/07/17 06:01:00;;;;;;;45.67;14.20;;;18.30;99.90;;;;;;5065832;28;20172;-64
2021/07/17 06:03:26;;;;;;;42.75;12.77;;;18.50;99.90;;;;;;5068358;28;20638;-64
2021/07/17 06:05:52;;;;;;;34.00;12.57;;;18.70;99.90;;;;;;5067927;28;20191;-64
2021/07/17 06:08:17;;;;;;;36.33;12.32;;;18.80;99.90;;;;;;5068276;28;20204;-64
2021/07/17 06:10:43;;;;;;;33.42;13.00;;;19.00;99.90;;;;;;5065659;28;20641;-64
2021/07/17 06:13:09;;;;;;;27.30;12.05;;;19.00;99.90;;;;;;5068556;28;20218;-64
2021/07/17 06:15:34;;;;;;;37.65;13.20;;;19.00;99.90;;;;;;5068048;28;20161;-65
2021/07/17 06:18:00;;;;;;;30.90;11.45;;;19.00;99.90;;;;;;5068066;28;20191;-64
2021/07/17 06:20:26;;;;;;;29.55;11.63;;;19.10;99.90;;;;;;5066066;28;20172;-64
2021/07/17 06:22:51;;;;;;;28.58;11.25;;;19.20;99.90;;;;;;5067247;28;20192;-64
2021/07/17 06:25:17;;;;;;;33.83;11.38;;;19.20;99.90;;;;;;5067935;28;20164;-64
2021/07/17 06:27:43;;;;;;;38.60;11.43;;;19.20;99.90;;;;;;5068022;28;20157;-64
2021/07/17 06:30:09;;;;;;;25.35;10.85;;;19.00;99.90;;;;;;5067984;28;20173;-64
2021/07/17 06:32:35;;;;;;;30.95;11.50;;;19.30;99.90;;;;;;5065222;28;20163;-64
2021/07/17 06:35:00;;;;;;;32.20;10.57;;;19.50;99.90;;;;;;5067677;28;20172;-64
2021/07/17 06:37:26;;;;;;;36.35;10.50;;;19.40;99.90;;;;;;5067725;28;20171;-64
2021/07/17 06:39:51;;;;;;;30.38;10.60;;;19.40;99.90;;;;;;5067721;28;20161;-64
2021/07/17 06:42:17;;;;;;;22.33;9.82;;;19.40;99.90;;;;;;5064999;28;20214;-64
2021/07/17 06:44:43;;;;;;;29.90;10.55;;;19.70;99.90;;;;;;5067824;28;20168;-65
2021/07/17 06:47:09;;;;;;;32.80;9.32;;;20.00;99.90;;;;;;5067639;28;20165;-64
2021/07/17 06:49:35;;;;;;;26.10;9.02;;;20.10;99.90;;;;;;5067107;28;20199;-64
2021/07/17 06:52:00;;;;;;;28.35;9.55;;;20.20;99.90;;;;;;5064771;28;20161;-64
2021/07/17 06:54:26;;;;;;;33.65;9.73;;;20.20;99.90;;;;;;5065855;28;20165;-65
2021/07/17 06:56:51;;;;;;;21.30;8.63;;;20.10;99.90;;;;;;5067169;28;20192;-65
2021/07/17 06:59:17;;;;;;;27.30;8.73;;;19.80;99.90;;;;;;5067179;28;20165;-64
2021/07/17 07:01:43;;;;;;;25.35;9.05;;;20.00;99.90;;;;;;5064683;28;20152;-65
2021/07/17 07:04:08;;;;;;;25.60;9.05;;;20.30;99.90;;;;;;5067187;28;20169;-64
2021/07/17 07:06:34;;;;;;;27.92;8.07;;;20.60;99.90;;;;;;5067221;28;20209;-65
2021/07/17 07:09:00;;;;;;;26.70;8.57;;;20.40;99.90;;;;;;5067243;28;20235;-65
2021/07/17 07:11:25;;;;;;;20.33;7.82;;;20.30;99.90;;;;;;5064129;28;20228;-64
2021/07/17 07:13:51;;;;;;;22.75;8.00;;;20.60;99.90;;;;;;5067164;28;20295;-65
2021/07/17 07:16:17;;;;;;;20.13;6.85;;;20.80;99.90;;;;;;5066650;28;20165;-64
2021/07/17 07:18:42;;;;;;;27.83;8.10;;;20.90;99.90;;;;;;5065618;28;20165;-64
2021/07/17 07:21:08;;;;;;;23.08;7.88;;;21.00;99.90;;;;;;5063656;28;20172;-64
2021/07/17 07:23:34;;;;;;;21.80;7.45;;;21.10;99.90;;;;;;5066827;28;20172;-64
2021/07/17 07:25:59;;;;;;;21.25;7.60;;;21.10;99.90;;;;;;5066571;28;20160;-64
2021/07/17 07:28:25;;;;;;;20.15;7.78;;;21.20;99.90;;;;;;5065380;28;20200;-64
2021/07/17 07:30:51;;;;;;;22.83;8.02;;;21.20;99.90;;;;;;5063937;28;20590;-64
2021/07/17 07:33:16;;;;;;;24.20;7.40;;;21.30;99.90;;;;;;5065103;28;20161;-65
2021/07/17 07:35:42;;;;;;;17.60;7.45;;;21.30;99.90;;;;;;5066707;28;20156;-64
2021/07/17 07:38:08;;;;;;;25.95;8.05;;;21.40;99.90;;;;;;5066768;28;20172;-64
2021/07/17 07:40:34;;;;;;;20.05;7.40;;;21.50;99.90;;;;;;5063548;28;20519;-65
2021/07/17 07:42:59;;;;;;;21.00;7.43;;;21.60;99.90;;;;;;5066458;28;20224;-64
2021/07/17 07:45:25;;;;;;;25.17;8.15;;;21.70;99.90;;;;;;5065986;28;20222;-64
2021/07/17 07:47:52;;;;;;;17.25;7.35;;;21.80;99.90;;;;;;5066565;28;20214;-65
2021/07/17 07:50:19;;;;;;;28.85;7.43;;;21.90;99.90;;;;;;5065205;28;20176;-65
2021/07/17 07:52:45;;;;;;;26.00;8.05;;;22.00;99.90;;;;;;5064728;28;20705;-64
2021/07/17 07:55:11;;;;;;;26.77;8.52;;;22.20;99.90;;;;;;5066184;28;20165;-64
2021/07/17 07:57:37;;;;;;;24.25;7.72;;;22.40;99.90;;;;;;5066203;28;20162;-65
2021/07/17 08:00:05;;;;;;;18.98;7.72;;;22.70;99.90;;;;;;5065891;28;20179;-65
2021/07/17 08:02:31;;;;;;;20.15;6.95;;;22.80;99.90;;;;;;5063297;28;20161;-64
2021/07/17 08:04:56;;;;;;;19.23;6.90;;;22.90;99.90;;;;;;5065819;28;20535;-64
2021/07/17 08:07:22;;;;;;;18.67;7.15;;;23.00;99.90;;;;;;5065689;28;20216;-65
2021/07/17 08:09:48;;;;;;;21.75;7.18;;;22.60;99.90;;;;;;5064459;28;20203;-64
2021/07/17 08:12:13;;;;;;;18.30;6.45;;;22.40;99.90;;;;;;5063180;28;20163;-65
2021/07/17 08:14:39;;;;;;;19.70;6.97;;;22.40;99.90;;;;;;5064814;28;20174;-64
2021/07/17 08:17:06;;;;;;;19.42;6.70;;;22.40;99.90;;;;;;5065900;28;20196;-64
2021/07/17 08:19:32;;;;;;;20.05;7.28;;;22.30;99.90;;;;;;5065582;28;20295;-64
2021/07/17 08:21:58;;;;;;;18.35;6.93;;;22.40;99.90;;;;;;5063338;28;20165;-64
2021/07/17 08:24:24;;;;;;;20.58;7.30;;;22.50;99.90;;;;;;5065463;28;20164;-65
2021/07/17 08:26:49;;;;;;;20.20;6.63;;;22.50;99.90;;;;;;5065834;28;20168;-64
2021/07/17 08:29:15;;;;;;;16.15;5.95;;;22.00;99.90;;;;;;5064262;28;20195;-64
2021/07/17 08:31:41;;;;;;;19.10;7.13;;;22.00;99.90;;;;;;5063427;28;20157;-65
2021/07/17 08:34:06;;;;;;;19.45;6.75;;;22.10;99.90;;;;;;5065424;28;20168;-64
2021/07/17 08:36:33;;;;;;;22.27;6.25;;;22.30;99.90;;;;;;5064358;28;20153;-64
2021/07/17 08:38:58;;;;;;;25.77;6.88;;;22.60;99.90;;;;;;5064746;28;20695;-64
2021/07/17 08:41:26;;;;;;;17.73;6.90;;;22.70;99.90;;;;;;5062673;28;20184;-65
2021/07/17 08:43:55;;;;;;;20.55;6.88;;;22.50;99.90;;;;;;5065380;28;20228;-65
2021/07/17 08:46:24;;;;;;;21.70;7.32;;;22.70;99.90;;;;;;5065275;28;20173;-64
2021/07/17 08:48:55;;;;;;;22.15;6.93;;;22.90;99.90;;;;;;5065218;28;20192;-65
2021/07/17 08:51:21;;;;;;;18.42;6.93;;;23.10;99.90;;;;;;5062036;28;20161;-64
2021/07/17 08:53:48;;;;;;;19.60;6.65;;;22.90;99.90;;;;;;5065228;28;20172;-64
2021/07/17 08:56:15;;;;;;;17.55;6.55;;;22.70;99.90;;;;;;5064769;28;20160;-64
2021/07/17 08:58:41;;;;;;;21.88;7.00;;;22.40;99.90;;;;;;5064826;28;20169;-65
2021/07/17 09:01:07;;;;;;;25.35;6.93;;;22.60;99.90;;;;;;5061940;28;20258;-65
2021/07/17 09:03:33;;;;;;;18.33;6.15;;;22.80;99.90;;;;;;5064651;28;20171;-64
2021/07/17 09:05:59;;;;;;;25.10;6.97;;;23.00;99.90;;;;;;5064933;28;20172;-65
2021/07/17 09:08:24;;;;;;;22.13;6.68;;;23.00;99.90;;;;;;5065074;28;20264;-65
2021/07/17 09:10:52;;;;;;;23.60;6.68;;;23.10;99.90;;;;;;5062717;28;20165;-64
2021/07/17 09:13:30;;;;;;;25.27;6.80;;;23.00;99.90;;;;;;5064985;28;20168;-65
2021/07/17 09:15:57;;;;;;;22.90;7.53;;;23.00;99.90;;;;;;5065231;28;20218;-64
2021/07/17 09:18:46;;;;;;;22.40;7.63;;;22.80;99.90;;;;;;5063576;28;20630;-66
2021/07/17 09:21:33;;;;;;;22.48;7.85;;;22.60;99.90;;;;;;5062288;28;20169;-66
2021/07/17 09:24:07;;;;;;;22.38;7.97;;;22.60;99.90;;;;;;5064927;28;20195;-65
2021/07/17 09:26:37;;;;;;;27.13;8.45;;;22.60;99.90;;;;;;5064948;28;20224;-65
2021/07/17 09:29:04;;;;;;;17.38;6.35;;;22.70;99.90;;;;;;5064658;28;20256;-64
2021/07/17 09:31:33;;;;;;;21.55;6.40;;;23.00;99.90;;;;;;5062123;28;20165;-65
2021/07/17 09:34:10;;;;;;;11.85;5.53;;;23.20;99.90;;;;;;5064606;28;20164;-65
2021/07/17 09:36:55;;;;;;;22.42;7.30;;;23.40;99.90;;;;;;5065268;28;20187;-65
2021/07/17 09:39:31;;;;;;;19.35;7.57;;;23.50;99.90;;;;;;5064828;28;20175;-65
2021/07/17 09:42:02;;;;;;;12.60;6.22;;;23.20;99.90;;;;;;5060988;28;20538;-65
2021/07/17 09:44:29;;;;;;;18.98;5.68;;;23.10;99.90;;;;;;5064913;28;20160;-65
2021/07/17 09:46:55;;;;;;;22.52;6.45;;;23.30;99.90;;;;;;5064883;28;20233;-65
2021/07/17 09:49:22;;;;;;;16.65;6.82;;;23.30;99.90;;;;;;5064451;28;20216;-64
2021/07/17 09:52:05;;;;;;;13.63;5.43;;;23.30;99.90;;;;;;5064682;28;20191;-65
2021/07/17 09:54:30;;;;;;;18.55;6.43;;;23.20;99.90;;;;;;5068184;28;20186;-65
2021/07/17 09:57:00;;;;;;;17.30;5.78;;;22.90;99.90;;;;;;5068482;28;20239;-65
2021/07/17 09:59:26;;;;;;;22.00;7.00;;;23.10;99.90;;;;;;5068497;28;20196;-64
2021/07/17 10:01:52;;;;;;;23.45;6.85;;;23.10;99.90;;;;;;5064311;28;20181;-65
2021/07/17 10:04:17;;;;;;;22.73;6.18;;;23.30;99.90;;;;;;5067760;28;20192;-65
2021/07/17 10:06:44;;;;;;;17.65;5.90;;;23.40;99.90;;;;;;5068082;28;20299;-65
2021/07/17 10:09:12;;;;;;;17.88;5.55;;;23.60;99.90;;;;;;5068038;28;20185;-65
2021/07/17 10:11:39;;;;;;;14.18;5.60;;;23.70;99.90;;;;;;5065465;28;20240;-65
2021/07/17 10:14:19;;;;;;;17.58;6.32;;;23.70;99.90;;;;;;5068082;28;20164;-65
2021/07/17 10:16:49;;;;;;;14.63;5.15;;;23.90;99.90;;;;;;5067862;28;20173;-65
2021/07/17 10:19:18;;;;;;;14.32;5.30;;;23.80;99.90;;;;;;5067247;28;20165;-65
2021/07/17 10:21:45;;;;;;;15.55;4.25;;;23.90;99.90;;;;;;5063878;28;20176;-65
2021/07/17 10:24:12;;;;;;;11.50;4.45;;;24.10;99.90;;;;;;5067890;28;20307;-65
2021/07/17 10:26:38;;;;;;;18.85;4.72;;;23.90;99.90;;;;;;5067917;28;20160;-65
2021/07/17 10:29:07;;;;;;;12.15;4.10;;;23.70;99.90;;;;;;5067709;28;20222;-65
2021/07/17 10:31:34;;;;;;;15.43;4.93;;;23.80;99.90;;;;;;5064989;28;20252;-64
2021/07/17 10:34:00;;;;;;;17.40;5.07;;;24.00;99.90;;;;;;5067379;28;20156;-65
2021/07/17 10:36:27;;;;;;;12.85;4.70;;;24.40;99.90;;;;;;5066204;28;20164;-65
2021/07/17 10:38:58;;;;;;;16.55;4.00;;;24.50;99.90;;;;;;5067632;28;20206;-65
2021/07/17 10:41:25;;;;;;;10.52;4.30;;;24.40;99.90;;;;;;5064678;28;20674;-65
2021/07/17 10:43:53;;;;;;;15.50;4.88;;;24.30;99.90;;;;;;5067485;28;20171;-65
2021/07/17 10:46:29;;;;;;;18.88;4.80;;;24.30;99.90;;;;;;5067353;28;20165;-65
2021/07/17 10:48:57;;;;;;;12.82;4.15;;;24.60;99.90;;;;;;5067150;28;20226;-64
2021/07/17 10:51:22;;;;;;;11.55;4.35;;;25.00;99.90;;;;;;5064511;28;20168;-64
2021/07/17 10:53:56;;;;;;;12.68;5.13;;;25.20;99.90;;;;;;5067439;28;20649;-65
2021/07/17 10:56:27;;;;;;;16.73;5.13;;;25.10;99.90;;;;;;5067336;28;20236;-64
2021/07/17 10:59:10;;;;;;;12.50;4.82;;;25.50;99.90;;;;;;5067210;28;20167;-64
2021/07/17 11:02:11;;;;;;;10.05;4.80;;;25.80;99.90;;;;;;5064108;28;20173;-64
2021/07/17 11:04:44;;;;;;;12.02;5.00;;;25.90;99.90;;;;;;5044686;28;20280;-65
2021/07/17 11:07:18;;;;;;;9.25;4.18;;;25.90;99.90;;;;;;5044155;28;20209;-65
2021/07/17 11:10:02;;;;;;;13.43;4.35;;;26.00;99.90;;;;;;5044530;28;20196;-64
2021/07/17 11:12:33;;;;;;;13.07;4.88;;;26.30;99.90;;;;;;5041065;28;20209;-65
2021/07/17 11:15:05;;;;;;;15.05;4.22;;;26.10;99.90;;;;;;5044413;28;20169;-66
2021/07/17 11:17:52;;;;;;;12.57;4.55;;;26.10;99.90;;;;;;5044072;28;20165;-65
2021/07/17 11:20:29;;;;;;;17.42;4.88;;;26.40;99.90;;;;;;5043287;28;20605;-64
2021/07/17 11:23:01;;;;;;;14.00;4.80;;;25.70;99.90;;;;;;5042777;28;20413;-65
2021/07/17 11:25:27;;;;;;;13.98;4.15;;;26.30;99.90;;;;;;5043902;28;20212;-64
2021/07/17 11:27:52;;;;;;;15.80;4.10;;;26.20;99.90;;;;;;5044380;28;20219;-65
2021/07/17 11:30:20;;;;;;;10.05;3.75;;;26.60;99.90;;;;;;5043318;28;20197;-65
2021/07/17 11:33:04;;;;;;;11.90;4.37;;;26.60;99.90;;;;;;5041470;28;20413;-65
2021/07/17 11:35:34;;;;;;;13.52;4.60;;;26.40;99.90;;;;;;5026908;28;20483;-65
2021/07/17 11:38:00;;;;;;;12.90;5.32;;;26.00;99.90;;;;;;5049649;28;20171;-65
2021/07/17 11:40:26;;;;;;;11.88;5.07;;;25.70;99.90;;;;;;5064705;28;20169;-65
2021/07/17 11:42:58;;;;;;;16.08;5.97;;;25.60;99.90;;;;;;5065882;28;20255;-65
2021/07/17 11:45:24;;;;;;;12.15;4.43;;;25.80;99.90;;;;;;5066167;28;20188;-65
2021/07/17 11:47:50;;;;;;;9.63;4.50;;;26.00;99.90;;;;;;5065022;28;20214;-65
2021/07/17 11:50:15;;;;;;;12.15;4.80;;;26.00;99.90;;;;;;5064708;28;20206;-65
2021/07/17 11:52:41;;;;;;;9.43;4.22;;;26.20;99.90;;;;;;5064418;28;20184;-65
2021/07/17 11:55:09;;;;;;;11.20;3.75;;;26.70;99.90;;;;;;5065743;28;20157;-65
2021/07/17 11:57:37;;;;;;;10.82;3.35;;;26.50;99.90;;;;;;5065744;28;20163;-65
2021/07/17 12:00:22;;;;;;;5.93;3.65;;;27.00;99.90;;;;;;5065763;28;20181;-64
2021/07/17 12:02:53;;;;;;;12.82;3.63;;;27.20;99.90;;;;;;5063944;28;20160;-65
2021/07/17 12:05:20;;;;;;;7.88;3.25;;;27.50;99.90;;;;;;5065264;28;20172;-65
2021/07/17 12:07:47;;;;;;;8.07;3.25;;;27.50;99.90;;;;;;5065621;28;20207;-65
2021/07/17 12:10:15;;;;;;;12.20;3.55;;;27.80;99.90;;;;;;5065396;28;20218;-65
2021/07/17 12:12:46;;;;;;;12.45;3.13;;;27.30;99.90;;;;;;5064037;28;20232;-65
2021/07/17 12:15:18;;;;;;;11.40;3.33;;;27.40;99.90;;;;;;5065522;28;20177;-65
2021/07/17 12:17:47;;;;;;;9.10;3.15;;;28.00;99.90;;;;;;5065622;28;20188;-65
2021/07/17 12:20:16;;;;;;;8.85;2.78;;;27.60;99.90;;;;;;5065004;28;20179;-65
2021/07/17 12:22:47;;;;;;;7.13;3.03;;;26.90;99.90;;;;;;5063821;28;20160;-65
2021/07/17 12:25:16;;;;;;;6.57;2.85;;;26.60;99.90;;;;;;5063827;28;20168;-65
2021/07/17 12:28:19;;;;;;;6.75;2.92;;;26.50;99.90;;;;;;5065241;28;20173;-65
2021/07/17 12:30:52;;;;;;;7.40;2.75;;;26.90;99.90;;;;;;5058945;28;20176;-65
2021/07/17 12:33:32;;;;;;;8.02;2.60;;;27.40;99.90;;;;;;5063556;28;20169;-65
2021/07/17 12:36:30;;;;;;;9.85;3.45;;;27.40;99.90;;;;;;5065040;28;20164;-65